sensor_id;sensor_type;location;lat;lon;timestamp;P1;durP1;ratioP1;P2;durP2;ratioP2
41061;SDS011;26812;42.662;23.352;2022-09-09T00:00:19;12.48;;;9.93;;
41061;SDS011;26812;42.662;23.352;2022-09-09T00:08:24;13.23;;;10.35;;
41061;SDS011;26812;42.662;23.352;2022-09-09T00:11:10;13.32;;;9.60;;
41061;SDS011;26812;42.662;23.352;2022-09-09T00:13:39;11.15;;;9.98;;
41061;SDS011;26812;42.662;23.352;2022-09-09T00:16:17;14.27;;;10.48;;
41061;SDS011;26812;42.662;23.352;2022-09-09T00:18:57;11.57;;;10.35;;
41061;SDS011;26812;42.662;23.352;2022-09-09T00:21:35;13.02;;;10.30;;
41061;SDS011;26812;42.662;23.352;2022-09-09T00:24:23;13.10;;;9.68;;
41061;SDS011;26812;42.662;23.352;2022-09-09T00:29:54;12.30;;;10.05;;
41061;SDS011;26812;42.662;23.352;2022-09-09T00:32:27;11.38;;;10.18;;
41061;SDS011;26812;42.662;23.352;2022-09-09T00:34:56;14.95;;;9.57;;
41061;SDS011;26812;42.662;23.352;2022-09-09T00:37:27;13.48;;;10.63;;
41061;SDS011;26812;42.662;23.352;2022-09-09T00:39:57;13.05;;;10.40;;
41061;SDS011;26812;42.662;23.352;2022-09-09T00:48:01;13.77;;;10.95;;
41061;SDS011;26812;42.662;23.352;2022-09-09T00:50:39;13.27;;;10.80;;
41061;SDS011;26812;42.662;23.352;2022-09-09T00:55:57;12.35;;;9.93;;
41061;SDS011;26812;42.662;23.352;2022-09-09T00:58:59;10.45;;;9.30;;
41061;SDS011;26812;42.662;23.352;2022-09-09T01:01:26;12.45;;;9.55;;
41061;SDS011;26812;42.662;23.352;2022-09-09T01:03:55;11.93;;;9.75;;
41061;SDS011;26812;42.662;23.352;2022-09-09T01:06:29;9.85;;;8.85;;
41061;SDS011;26812;42.662;23.352;2022-09-09T01:16:58;12.75;;;9.98;;
41061;SDS011;26812;42.662;23.352;2022-09-09T01:19:37;11.15;;;9.98;;
41061;SDS011;26812;42.662;23.352;2022-09-09T01:27:43;13.02;;;8.90;;
41061;SDS011;26812;42.662;23.352;2022-09-09T01:30:13;12.57;;;9.77;;
41061;SDS011;26812;42.662;23.352;2022-09-09T01:35:12;11.20;;;10.00;;
41061;SDS011;26812;42.662;23.352;2022-09-09T01:37:45;11.13;;;10.00;;
41061;SDS011;26812;42.662;23.352;2022-09-09T01:40:11;13.57;;;9.85;;
41061;SDS011;26812;42.662;23.352;2022-09-09T01:42:36;13.05;;;9.60;;
41061;SDS011;26812;42.662;23.352;2022-09-09T01:45:02;11.23;;;9.85;;
41061;SDS011;26812;42.662;23.352;2022-09-09T01:47:29;13.25;;;10.02;;
41061;SDS011;26812;42.662;23.352;2022-09-09T01:49:54;10.63;;;9.52;;
41061;SDS011;26812;42.662;23.352;2022-09-09T01:52:26;11.00;;;9.90;;
41061;SDS011;26812;42.662;23.352;2022-09-09T01:54:52;11.77;;;9.85;;
41061;SDS011;26812;42.662;23.352;2022-09-09T01:57:23;12.30;;;10.15;;
41061;SDS011;26812;42.662;23.352;2022-09-09T02:02:58;13.07;;;10.65;;
41061;SDS011;26812;42.662;23.352;2022-09-09T02:05:36;13.63;;;9.75;;
41061;SDS011;26812;42.662;23.352;2022-09-09T02:08:08;12.50;;;10.55;;
41061;SDS011;26812;42.662;23.352;2022-09-09T02:13:13;11.93;;;10.32;;
41061;SDS011;26812;42.662;23.352;2022-09-09T02:18:18;11.57;;;8.98;;
41061;SDS011;26812;42.662;23.352;2022-09-09T02:20:55;12.45;;;9.90;;
41061;SDS011;26812;42.662;23.352;2022-09-09T02:23:22;14.00;;;10.48;;
41061;SDS011;26812;42.662;23.352;2022-09-09T02:25:48;10.95;;;9.45;;
41061;SDS011;26812;42.662;23.352;2022-09-09T02:28:16;14.48;;;10.13;;
41061;SDS011;26812;42.662;23.352;2022-09-09T02:30:46;11.32;;;10.13;;
41061;SDS011;26812;42.662;23.352;2022-09-09T02:33:21;11.23;;;10.02;;
41061;SDS011;26812;42.662;23.352;2022-09-09T02:35:51;11.95;;;10.20;;
41061;SDS011;26812;42.662;23.352;2022-09-09T02:38:21;12.10;;;10.52;;
41061;SDS011;26812;42.662;23.352;2022-09-09T02:40:51;11.93;;;9.93;;
41061;SDS011;26812;42.662;23.352;2022-09-09T02:43:17;14.93;;;10.40;;
41061;SDS011;26812;42.662;23.352;2022-09-09T02:45:49;11.90;;;10.15;;
41061;SDS011;26812;42.662;23.352;2022-09-09T02:51:12;11.07;;;9.75;;
41061;SDS011;26812;42.662;23.352;2022-09-09T02:53:48;10.98;;;9.65;;
41061;SDS011;26812;42.662;23.352;2022-09-09T02:56:37;11.48;;;10.07;;
41061;SDS011;26812;42.662;23.352;2022-09-09T02:59:06;12.70;;;10.07;;
41061;SDS011;26812;42.662;23.352;2022-09-09T03:01:32;12.20;;;10.45;;
41061;SDS011;26812;42.662;23.352;2022-09-09T03:03:58;12.55;;;10.80;;
41061;SDS011;26812;42.662;23.352;2022-09-09T03:06:23;11.93;;;10.23;;
41061;SDS011;26812;42.662;23.352;2022-09-09T03:08:49;12.77;;;10.73;;
41061;SDS011;26812;42.662;23.352;2022-09-09T03:11:15;10.82;;;9.55;;
41061;SDS011;26812;42.662;23.352;2022-09-09T03:13:41;17.88;;;10.60;;
41061;SDS011;26812;42.662;23.352;2022-09-09T03:16:06;13.88;;;10.30;;
41061;SDS011;26812;42.662;23.352;2022-09-09T03:18:32;11.75;;;10.23;;
41061;SDS011;26812;42.662;23.352;2022-09-09T03:20:57;13.32;;;11.07;;
41061;SDS011;26812;42.662;23.352;2022-09-09T03:23:24;11.55;;;9.68;;
41061;SDS011;26812;42.662;23.352;2022-09-09T03:25:49;16.50;;;11.13;;
41061;SDS011;26812;42.662;23.352;2022-09-09T03:28:16;14.57;;;10.82;;
41061;SDS011;26812;42.662;23.352;2022-09-09T03:30:41;14.40;;;10.63;;
41061;SDS011;26812;42.662;23.352;2022-09-09T03:33:07;13.02;;;10.93;;
41061;SDS011;26812;42.662;23.352;2022-09-09T03:35:32;13.60;;;10.73;;
41061;SDS011;26812;42.662;23.352;2022-09-09T03:37:58;13.57;;;11.05;;
41061;SDS011;26812;42.662;23.352;2022-09-09T03:40:23;12.20;;;10.95;;
41061;SDS011;26812;42.662;23.352;2022-09-09T03:42:48;17.40;;;11.23;;
41061;SDS011;26812;42.662;23.352;2022-09-09T03:45:14;12.30;;;11.00;;
41061;SDS011;26812;42.662;23.352;2022-09-09T03:47:39;13.13;;;11.55;;
41061;SDS011;26812;42.662;23.352;2022-09-09T03:50:05;14.48;;;11.00;;
41061;SDS011;26812;42.662;23.352;2022-09-09T03:52:36;11.73;;;10.23;;
41061;SDS011;26812;42.662;23.352;2022-09-09T03:55:04;14.75;;;11.80;;
41061;SDS011;26812;42.662;23.352;2022-09-09T03:57:30;11.68;;;10.45;;
41061;SDS011;26812;42.662;23.352;2022-09-09T03:59:56;13.63;;;11.52;;
41061;SDS011;26812;42.662;23.352;2022-09-09T04:02:22;13.48;;;10.90;;
41061;SDS011;26812;42.662;23.352;2022-09-09T04:04:48;12.07;;;10.43;;
41061;SDS011;26812;42.662;23.352;2022-09-09T04:07:14;13.02;;;10.30;;
41061;SDS011;26812;42.662;23.352;2022-09-09T04:09:39;14.70;;;11.43;;
41061;SDS011;26812;42.662;23.352;2022-09-09T04:12:05;15.48;;;11.25;;
41061;SDS011;26812;42.662;23.352;2022-09-09T04:14:31;13.35;;;10.50;;
41061;SDS011;26812;42.662;23.352;2022-09-09T04:16:56;14.15;;;11.32;;
41061;SDS011;26812;42.662;23.352;2022-09-09T04:19:24;16.65;;;11.60;;
41061;SDS011;26812;42.662;23.352;2022-09-09T04:21:49;15.27;;;12.13;;
41061;SDS011;26812;42.662;23.352;2022-09-09T04:24:23;16.33;;;11.93;;
41061;SDS011;26812;42.662;23.352;2022-09-09T04:26:49;17.52;;;12.75;;
41061;SDS011;26812;42.662;23.352;2022-09-09T04:29:15;14.20;;;11.93;;
41061;SDS011;26812;42.662;23.352;2022-09-09T04:31:46;13.18;;;11.77;;
41061;SDS011;26812;42.662;23.352;2022-09-09T04:34:12;17.02;;;12.52;;
41061;SDS011;26812;42.662;23.352;2022-09-09T04:36:37;14.43;;;12.25;;
41061;SDS011;26812;42.662;23.352;2022-09-09T04:39:04;14.80;;;11.65;;
41061;SDS011;26812;42.662;23.352;2022-09-09T04:41:29;13.95;;;11.93;;
41061;SDS011;26812;42.662;23.352;2022-09-09T04:43:56;14.57;;;11.98;;
41061;SDS011;26812;42.662;23.352;2022-09-09T04:46:22;15.10;;;11.75;;
41061;SDS011;26812;42.662;23.352;2022-09-09T04:48:50;18.75;;;11.85;;
41061;SDS011;26812;42.662;23.352;2022-09-09T04:51:17;13.40;;;12.00;;
41061;SDS011;26812;42.662;23.352;2022-09-09T04:53:42;14.88;;;13.27;;
41061;SDS011;26812;42.662;23.352;2022-09-09T04:56:08;20.65;;;13.23;;
41061;SDS011;26812;42.662;23.352;2022-09-09T04:58:36;13.90;;;12.35;;
41061;SDS011;26812;42.662;23.352;2022-09-09T05:01:06;18.55;;;12.30;;
41061;SDS011;26812;42.662;23.352;2022-09-09T05:03:33;15.98;;;13.10;;
41061;SDS011;26812;42.662;23.352;2022-09-09T05:06:02;14.30;;;12.80;;
41061;SDS011;26812;42.662;23.352;2022-09-09T05:08:31;16.45;;;12.18;;
41061;SDS011;26812;42.662;23.352;2022-09-09T05:10:57;15.13;;;13.27;;
41061;SDS011;26812;42.662;23.352;2022-09-09T05:13:24;14.20;;;12.13;;
41061;SDS011;26812;42.662;23.352;2022-09-09T05:15:53;14.50;;;12.95;;
41061;SDS011;26812;42.662;23.352;2022-09-09T05:18:19;16.17;;;12.35;;
41061;SDS011;26812;42.662;23.352;2022-09-09T05:20:45;16.50;;;13.48;;
41061;SDS011;26812;42.662;23.352;2022-09-09T05:23:10;12.70;;;11.45;;
41061;SDS011;26812;42.662;23.352;2022-09-09T05:25:39;16.08;;;12.30;;
41061;SDS011;26812;42.662;23.352;2022-09-09T05:28:06;13.77;;;12.35;;
41061;SDS011;26812;42.662;23.352;2022-09-09T05:30:39;16.77;;;11.63;;
41061;SDS011;26812;42.662;23.352;2022-09-09T05:33:04;12.57;;;10.90;;
41061;SDS011;26812;42.662;23.352;2022-09-09T05:35:31;17.23;;;10.65;;
41061;SDS011;26812;42.662;23.352;2022-09-09T05:37:59;13.82;;;11.30;;
41061;SDS011;26812;42.662;23.352;2022-09-09T05:40:25;13.85;;;10.43;;
41061;SDS011;26812;42.662;23.352;2022-09-09T05:42:50;12.90;;;10.68;;
41061;SDS011;26812;42.662;23.352;2022-09-09T05:45:15;12.05;;;9.65;;
41061;SDS011;26812;42.662;23.352;2022-09-09T05:47:41;12.82;;;10.45;;
41061;SDS011;26812;42.662;23.352;2022-09-09T05:50:06;11.68;;;9.68;;
41061;SDS011;26812;42.662;23.352;2022-09-09T05:52:32;10.95;;;9.18;;
41061;SDS011;26812;42.662;23.352;2022-09-09T05:54:58;10.80;;;8.27;;
41061;SDS011;26812;42.662;23.352;2022-09-09T05:57:24;12.73;;;8.65;;
41061;SDS011;26812;42.662;23.352;2022-09-09T05:59:50;11.57;;;7.85;;
41061;SDS011;26812;42.662;23.352;2022-09-09T06:02:15;8.02;;;7.22;;
41061;SDS011;26812;42.662;23.352;2022-09-09T06:04:41;8.52;;;7.68;;
41061;SDS011;26812;42.662;23.352;2022-09-09T06:07:07;10.45;;;8.30;;
41061;SDS011;26812;42.662;23.352;2022-09-09T06:09:32;9.38;;;8.10;;
41061;SDS011;26812;42.662;23.352;2022-09-09T06:12:04;12.93;;;8.82;;
41061;SDS011;26812;42.662;23.352;2022-09-09T06:14:29;10.98;;;7.82;;
41061;SDS011;26812;42.662;23.352;2022-09-09T06:16:54;9.98;;;8.02;;
41061;SDS011;26812;42.662;23.352;2022-09-09T06:19:21;10.20;;;8.38;;
41061;SDS011;26812;42.662;23.352;2022-09-09T06:21:49;10.73;;;8.88;;
41061;SDS011;26812;42.662;23.352;2022-09-09T06:24:15;11.27;;;7.90;;
41061;SDS011;26812;42.662;23.352;2022-09-09T06:26:42;8.45;;;7.43;;
41061;SDS011;26812;42.662;23.352;2022-09-09T06:29:08;9.07;;;8.18;;
41061;SDS011;26812;42.662;23.352;2022-09-09T06:31:34;10.00;;;8.52;;
41061;SDS011;26812;42.662;23.352;2022-09-09T06:34:02;9.70;;;8.07;;
41061;SDS011;26812;42.662;23.352;2022-09-09T06:36:30;9.45;;;8.52;;
41061;SDS011;26812;42.662;23.352;2022-09-09T06:39:00;9.93;;;8.93;;
41061;SDS011;26812;42.662;23.352;2022-09-09T06:41:27;11.23;;;9.35;;
41061;SDS011;26812;42.662;23.352;2022-09-09T06:43:55;10.38;;;7.72;;
41061;SDS011;26812;42.662;23.352;2022-09-09T06:46:27;11.98;;;8.52;;
41061;SDS011;26812;42.662;23.352;2022-09-09T06:48:54;10.68;;;8.27;;
41061;SDS011;26812;42.662;23.352;2022-09-09T06:51:21;9.63;;;7.38;;
41061;SDS011;26812;42.662;23.352;2022-09-09T06:53:51;9.23;;;7.07;;
41061;SDS011;26812;42.662;23.352;2022-09-09T06:56:22;10.80;;;6.90;;
41061;SDS011;26812;42.662;23.352;2022-09-09T06:58:50;7.15;;;6.35;;
41061;SDS011;26812;42.662;23.352;2022-09-09T07:01:20;7.68;;;6.57;;
41061;SDS011;26812;42.662;23.352;2022-09-09T07:03:49;11.75;;;6.78;;
41061;SDS011;26812;42.662;23.352;2022-09-09T07:06:17;7.75;;;6.35;;
41061;SDS011;26812;42.662;23.352;2022-09-09T07:08:55;8.25;;;7.05;;
41061;SDS011;26812;42.662;23.352;2022-09-09T07:11:23;9.05;;;8.13;;
41061;SDS011;26812;42.662;23.352;2022-09-09T07:13:51;8.43;;;7.15;;
41061;SDS011;26812;42.662;23.352;2022-09-09T07:16:18;6.78;;;6.18;;
41061;SDS011;26812;42.662;23.352;2022-09-09T07:18:45;10.05;;;7.30;;
41061;SDS011;26812;42.662;23.352;2022-09-09T07:21:11;7.30;;;6.60;;
41061;SDS011;26812;42.662;23.352;2022-09-09T07:23:38;7.93;;;7.15;;
41061;SDS011;26812;42.662;23.352;2022-09-09T07:26:08;7.57;;;6.70;;
41061;SDS011;26812;42.662;23.352;2022-09-09T07:28:46;6.95;;;6.25;;
41061;SDS011;26812;42.662;23.352;2022-09-09T07:31:13;7.72;;;7.00;;
41061;SDS011;26812;42.662;23.352;2022-09-09T07:33:44;7.55;;;6.05;;
41061;SDS011;26812;42.662;23.352;2022-09-09T07:38:40;7.90;;;5.70;;
41061;SDS011;26812;42.662;23.352;2022-09-09T07:41:08;9.07;;;7.22;;
41061;SDS011;26812;42.662;23.352;2022-09-09T07:43:37;6.20;;;5.53;;
41061;SDS011;26812;42.662;23.352;2022-09-09T07:46:05;6.45;;;5.47;;
41061;SDS011;26812;42.662;23.352;2022-09-09T07:48:31;7.38;;;6.07;;
41061;SDS011;26812;42.662;23.352;2022-09-09T07:51:32;5.80;;;5.18;;
41061;SDS011;26812;42.662;23.352;2022-09-09T07:53:57;5.82;;;5.32;;
41061;SDS011;26812;42.662;23.352;2022-09-09T07:56:30;5.80;;;5.03;;
41061;SDS011;26812;42.662;23.352;2022-09-09T07:58:56;8.02;;;5.68;;
41061;SDS011;26812;42.662;23.352;2022-09-09T08:01:56;6.07;;;4.97;;
41061;SDS011;26812;42.662;23.352;2022-09-09T08:04:19;6.30;;;5.67;;
41061;SDS011;26812;42.662;23.352;2022-09-09T08:06:49;5.07;;;4.57;;
41061;SDS011;26812;42.662;23.352;2022-09-09T08:09:19;6.38;;;5.53;;
41061;SDS011;26812;42.662;23.352;2022-09-09T08:11:46;6.57;;;5.05;;
41061;SDS011;26812;42.662;23.352;2022-09-09T08:14:12;5.13;;;4.63;;
41061;SDS011;26812;42.662;23.352;2022-09-09T08:16:42;5.15;;;4.65;;
41061;SDS011;26812;42.662;23.352;2022-09-09T08:19:10;5.60;;;5.10;;
41061;SDS011;26812;42.662;23.352;2022-09-09T08:21:36;5.30;;;4.80;;
41061;SDS011;26812;42.662;23.352;2022-09-09T08:24:05;6.82;;;4.75;;
41061;SDS011;26812;42.662;23.352;2022-09-09T08:26:33;5.30;;;4.70;;
41061;SDS011;26812;42.662;23.352;2022-09-09T08:29:01;6.75;;;4.43;;
41061;SDS011;26812;42.662;23.352;2022-09-09T08:31:29;5.38;;;4.88;;
41061;SDS011;26812;42.662;23.352;2022-09-09T08:33:57;8.73;;;5.50;;
41061;SDS011;26812;42.662;23.352;2022-09-09T08:36:26;5.55;;;5.05;;
41061;SDS011;26812;42.662;23.352;2022-09-09T08:38:53;7.38;;;5.07;;
41061;SDS011;26812;42.662;23.352;2022-09-09T08:43:51;6.80;;;5.50;;
41061;SDS011;26812;42.662;23.352;2022-09-09T08:53:04;6.68;;;6.05;;
41061;SDS011;26812;42.662;23.352;2022-09-09T08:58:09;6.35;;;5.13;;
41061;SDS011;26812;42.662;23.352;2022-09-09T09:00:50;6.75;;;5.72;;
41061;SDS011;26812;42.662;23.352;2022-09-09T09:08:43;6.45;;;5.43;;
41061;SDS011;26812;42.662;23.352;2022-09-09T09:11:16;7.85;;;5.80;;
41061;SDS011;26812;42.662;23.352;2022-09-09T09:16:27;8.50;;;5.95;;
41061;SDS011;26812;42.662;23.352;2022-09-09T09:18:58;6.63;;;5.25;;
41061;SDS011;26812;42.662;23.352;2022-09-09T09:21:36;5.72;;;5.10;;
41061;SDS011;26812;42.662;23.352;2022-09-09T09:24:31;5.82;;;5.18;;
41061;SDS011;26812;42.662;23.352;2022-09-09T09:27:11;9.35;;;5.97;;
41061;SDS011;26812;42.662;23.352;2022-09-09T09:29:43;6.63;;;5.57;;
41061;SDS011;26812;42.662;23.352;2022-09-09T09:32:11;7.30;;;5.22;;
41061;SDS011;26812;42.662;23.352;2022-09-09T09:34:41;5.95;;;5.43;;
41061;SDS011;26812;42.662;23.352;2022-09-09T09:37:12;6.55;;;5.88;;
41061;SDS011;26812;42.662;23.352;2022-09-09T09:39:45;6.70;;;5.65;;
41061;SDS011;26812;42.662;23.352;2022-09-09T09:42:14;5.80;;;5.05;;
41061;SDS011;26812;42.662;23.352;2022-09-09T09:44:42;7.03;;;5.07;;
41061;SDS011;26812;42.662;23.352;2022-09-09T09:47:11;10.73;;;7.20;;
41061;SDS011;26812;42.662;23.352;2022-09-09T09:49:38;5.70;;;5.15;;
41061;SDS011;26812;42.662;23.352;2022-09-09T09:52:04;5.40;;;4.90;;
41061;SDS011;26812;42.662;23.352;2022-09-09T09:54:41;7.55;;;5.05;;
41061;SDS011;26812;42.662;23.352;2022-09-09T09:57:08;6.57;;;5.38;;
41061;SDS011;26812;42.662;23.352;2022-09-09T09:59:40;5.78;;;5.00;;
41061;SDS011;26812;42.662;23.352;2022-09-09T10:04:42;6.00;;;5.40;;
41061;SDS011;26812;42.662;23.352;2022-09-09T10:07:11;9.35;;;5.00;;
41061;SDS011;26812;42.662;23.352;2022-09-09T10:09:44;6.80;;;5.43;;
41061;SDS011;26812;42.662;23.352;2022-09-09T10:14:52;6.38;;;5.78;;
41061;SDS011;26812;42.662;23.352;2022-09-09T10:20:04;5.90;;;4.95;;
41061;SDS011;26812;42.662;23.352;2022-09-09T10:22:45;6.82;;;5.28;;
41061;SDS011;26812;42.662;23.352;2022-09-09T10:28:15;8.82;;;5.72;;
41061;SDS011;26812;42.662;23.352;2022-09-09T10:30:48;5.95;;;5.40;;
41061;SDS011;26812;42.662;23.352;2022-09-09T10:33:32;6.65;;;5.55;;
41061;SDS011;26812;42.662;23.352;2022-09-09T10:38:43;6.45;;;5.55;;
41061;SDS011;26812;42.662;23.352;2022-09-09T10:54:59;7.28;;;6.57;;
41061;SDS011;26812;42.662;23.352;2022-09-09T10:57:39;6.45;;;5.85;;
41061;SDS011;26812;42.662;23.352;2022-09-09T11:00:10;7.32;;;5.65;;
41061;SDS011;26812;42.662;23.352;2022-09-09T11:02:44;6.88;;;5.35;;
41061;SDS011;26812;42.662;23.352;2022-09-09T11:05:19;7.60;;;5.40;;
41061;SDS011;26812;42.662;23.352;2022-09-09T11:07:59;7.30;;;5.45;;
41061;SDS011;26812;42.662;23.352;2022-09-09T11:21:50;7.13;;;6.43;;
41061;SDS011;26812;42.662;23.352;2022-09-09T11:24:21;8.82;;;5.82;;
41061;SDS011;26812;42.662;23.352;2022-09-09T11:26:52;7.05;;;5.85;;
41061;SDS011;26812;42.662;23.352;2022-09-09T11:40:54;8.00;;;7.10;;
41061;SDS011;26812;42.662;23.352;2022-09-09T11:43:25;7.40;;;6.70;;
41061;SDS011;26812;42.662;23.352;2022-09-09T11:46:01;8.18;;;6.63;;
41061;SDS011;26812;42.662;23.352;2022-09-09T11:48:29;9.20;;;6.80;;
41061;SDS011;26812;42.662;23.352;2022-09-09T11:51:06;10.98;;;6.80;;
41061;SDS011;26812;42.662;23.352;2022-09-09T11:56:49;11.80;;;6.43;;
41061;SDS011;26812;42.662;23.352;2022-09-09T12:04:37;7.20;;;6.43;;
41061;SDS011;26812;42.662;23.352;2022-09-09T12:07:20;11.85;;;7.43;;
41061;SDS011;26812;42.662;23.352;2022-09-09T12:17:27;8.30;;;7.10;;
41061;SDS011;26812;42.662;23.352;2022-09-09T12:23:03;10.88;;;6.40;;
41061;SDS011;26812;42.662;23.352;2022-09-09T12:28:18;6.95;;;6.30;;
41061;SDS011;26812;42.662;23.352;2022-09-09T12:33:35;10.50;;;6.70;;
41061;SDS011;26812;42.662;23.352;2022-09-09T12:36:02;13.95;;;7.82;;
41061;SDS011;26812;42.662;23.352;2022-09-09T12:38:39;7.47;;;6.78;;
41061;SDS011;26812;42.662;23.352;2022-09-09T12:41:15;9.43;;;7.47;;
41061;SDS011;26812;42.662;23.352;2022-09-09T12:43:44;10.35;;;7.57;;
41061;SDS011;26812;42.662;23.352;2022-09-09T12:46:12;9.85;;;7.28;;
41061;SDS011;26812;42.662;23.352;2022-09-09T12:49:01;11.00;;;7.22;;
41061;SDS011;26812;42.662;23.352;2022-09-09T12:51:29;9.35;;;6.78;;
41061;SDS011;26812;42.662;23.352;2022-09-09T12:53:56;9.57;;;6.75;;
41061;SDS011;26812;42.662;23.352;2022-09-09T12:56:24;8.20;;;7.38;;
41061;SDS011;26812;42.662;23.352;2022-09-09T12:58:52;10.05;;;7.57;;
41061;SDS011;26812;42.662;23.352;2022-09-09T13:03:53;8.98;;;7.30;;
41061;SDS011;26812;42.662;23.352;2022-09-09T13:06:20;8.95;;;7.38;;
41061;SDS011;26812;42.662;23.352;2022-09-09T13:08:51;8.20;;;6.65;;
41061;SDS011;26812;42.662;23.352;2022-09-09T13:11:22;8.18;;;7.35;;
41061;SDS011;26812;42.662;23.352;2022-09-09T13:13:54;12.07;;;7.63;;
41061;SDS011;26812;42.662;23.352;2022-09-09T13:18:47;11.52;;;7.13;;
41061;SDS011;26812;42.662;23.352;2022-09-09T13:21:14;9.70;;;7.15;;
41061;SDS011;26812;42.662;23.352;2022-09-09T13:23:40;8.63;;;6.95;;
41061;SDS011;26812;42.662;23.352;2022-09-09T13:26:06;9.02;;;7.47;;
41061;SDS011;26812;42.662;23.352;2022-09-09T13:28:49;8.80;;;7.40;;
41061;SDS011;26812;42.662;23.352;2022-09-09T13:31:27;12.65;;;7.20;;
41061;SDS011;26812;42.662;23.352;2022-09-09T13:33:58;10.93;;;8.43;;
41061;SDS011;26812;42.662;23.352;2022-09-09T13:36:30;10.20;;;7.47;;
41061;SDS011;26812;42.662;23.352;2022-09-09T13:38:58;10.82;;;7.32;;
41061;SDS011;26812;42.662;23.352;2022-09-09T13:41:28;9.85;;;7.00;;
41061;SDS011;26812;42.662;23.352;2022-09-09T13:43:57;8.10;;;6.40;;
41061;SDS011;26812;42.662;23.352;2022-09-09T13:46:28;8.55;;;7.72;;
41061;SDS011;26812;42.662;23.352;2022-09-09T13:48:58;10.10;;;7.93;;
41061;SDS011;26812;42.662;23.352;2022-09-09T13:51:35;11.98;;;7.95;;
41061;SDS011;26812;42.662;23.352;2022-09-09T13:54:06;13.00;;;7.47;;
41061;SDS011;26812;42.662;23.352;2022-09-09T13:56:34;14.38;;;7.45;;
41061;SDS011;26812;42.662;23.352;2022-09-09T13:59:11;8.57;;;7.70;;
41061;SDS011;26812;42.662;23.352;2022-09-09T14:01:38;8.25;;;7.00;;
41061;SDS011;26812;42.662;23.352;2022-09-09T14:04:03;9.07;;;7.50;;
41061;SDS011;26812;42.662;23.352;2022-09-09T14:06:31;11.38;;;7.65;;
41061;SDS011;26812;42.662;23.352;2022-09-09T14:08:57;8.60;;;7.63;;
41061;SDS011;26812;42.662;23.352;2022-09-09T14:11:23;9.73;;;8.18;;
41061;SDS011;26812;42.662;23.352;2022-09-09T14:13:48;8.43;;;7.25;;
41061;SDS011;26812;42.662;23.352;2022-09-09T14:16:17;8.32;;;7.05;;
41061;SDS011;26812;42.662;23.352;2022-09-09T14:18:43;7.78;;;7.03;;
41061;SDS011;26812;42.662;23.352;2022-09-09T14:21:09;13.27;;;7.05;;
41061;SDS011;26812;42.662;23.352;2022-09-09T14:23:34;11.23;;;6.88;;
41061;SDS011;26812;42.662;23.352;2022-09-09T14:26:00;9.73;;;7.25;;
41061;SDS011;26812;42.662;23.352;2022-09-09T14:28:26;12.77;;;7.32;;
41061;SDS011;26812;42.662;23.352;2022-09-09T14:30:53;8.85;;;7.45;;
41061;SDS011;26812;42.662;23.352;2022-09-09T14:33:19;8.57;;;7.65;;
41061;SDS011;26812;42.662;23.352;2022-09-09T14:35:44;8.35;;;7.28;;
41061;SDS011;26812;42.662;23.352;2022-09-09T14:38:09;12.02;;;6.88;;
41061;SDS011;26812;42.662;23.352;2022-09-09T14:40:36;9.32;;;6.65;;
41061;SDS011;26812;42.662;23.352;2022-09-09T14:43:02;8.90;;;7.45;;
41061;SDS011;26812;42.662;23.352;2022-09-09T14:45:28;8.85;;;6.95;;
41061;SDS011;26812;42.662;23.352;2022-09-09T14:47:54;8.52;;;6.68;;
41061;SDS011;26812;42.662;23.352;2022-09-09T14:50:20;10.40;;;6.57;;
41061;SDS011;26812;42.662;23.352;2022-09-09T14:52:46;10.48;;;6.72;;
41061;SDS011;26812;42.662;23.352;2022-09-09T14:55:12;11.20;;;7.65;;
41061;SDS011;26812;42.662;23.352;2022-09-09T14:57:38;7.47;;;6.15;;
41061;SDS011;26812;42.662;23.352;2022-09-09T15:00:05;10.55;;;6.85;;
41061;SDS011;26812;42.662;23.352;2022-09-09T15:02:32;10.40;;;6.90;;
41061;SDS011;26812;42.662;23.352;2022-09-09T15:04:57;10.15;;;6.57;;
41061;SDS011;26812;42.662;23.352;2022-09-09T15:07:23;9.30;;;7.15;;
41061;SDS011;26812;42.662;23.352;2022-09-09T15:09:49;11.13;;;7.75;;
41061;SDS011;26812;42.662;23.352;2022-09-09T15:12:15;15.07;;;10.23;;
41061;SDS011;26812;42.662;23.352;2022-09-09T15:14:43;10.63;;;8.05;;
41061;SDS011;26812;42.662;23.352;2022-09-09T15:17:09;9.95;;;7.03;;
41061;SDS011;26812;42.662;23.352;2022-09-09T15:19:34;10.27;;;6.32;;
41061;SDS011;26812;42.662;23.352;2022-09-09T15:22:00;9.93;;;7.18;;
41061;SDS011;26812;42.662;23.352;2022-09-09T15:24:26;8.48;;;6.80;;
41061;SDS011;26812;42.662;23.352;2022-09-09T15:26:51;10.20;;;7.05;;
41061;SDS011;26812;42.662;23.352;2022-09-09T15:29:17;10.98;;;7.22;;
41061;SDS011;26812;42.662;23.352;2022-09-09T15:31:43;12.30;;;8.90;;
41061;SDS011;26812;42.662;23.352;2022-09-09T15:34:11;10.32;;;7.20;;
41061;SDS011;26812;42.662;23.352;2022-09-09T15:36:44;7.97;;;7.05;;
41061;SDS011;26812;42.662;23.352;2022-09-09T15:39:14;9.00;;;6.97;;
41061;SDS011;26812;42.662;23.352;2022-09-09T15:41:41;8.55;;;6.72;;
41061;SDS011;26812;42.662;23.352;2022-09-09T15:44:11;9.20;;;6.75;;
41061;SDS011;26812;42.662;23.352;2022-09-09T15:51:41;10.80;;;7.28;;
41061;SDS011;26812;42.662;23.352;2022-09-09T15:54:08;8.75;;;7.68;;
41061;SDS011;26812;42.662;23.352;2022-09-09T15:56:34;8.43;;;6.85;;
41061;SDS011;26812;42.662;23.352;2022-09-09T15:59:00;8.85;;;6.78;;
41061;SDS011;26812;42.662;23.352;2022-09-09T16:01:30;8.63;;;7.80;;
41061;SDS011;26812;42.662;23.352;2022-09-09T16:03:56;16.27;;;9.70;;
41061;SDS011;26812;42.662;23.352;2022-09-09T16:06:23;11.80;;;7.90;;
41061;SDS011;26812;42.662;23.352;2022-09-09T16:08:51;11.70;;;7.10;;
41061;SDS011;26812;42.662;23.352;2022-09-09T16:11:18;8.30;;;6.97;;
41061;SDS011;26812;42.662;23.352;2022-09-09T16:13:47;11.32;;;7.57;;
41061;SDS011;26812;42.662;23.352;2022-09-09T16:16:14;9.95;;;8.15;;
41061;SDS011;26812;42.662;23.352;2022-09-09T16:18:44;11.77;;;8.00;;
41061;SDS011;26812;42.662;23.352;2022-09-09T16:21:15;9.75;;;7.40;;
41061;SDS011;26812;42.662;23.352;2022-09-09T16:23:42;10.30;;;7.50;;
41061;SDS011;26812;42.662;23.352;2022-09-09T16:26:10;10.15;;;7.85;;
41061;SDS011;26812;42.662;23.352;2022-09-09T16:28:37;8.80;;;7.85;;
41061;SDS011;26812;42.662;23.352;2022-09-09T16:31:05;11.30;;;8.60;;
41061;SDS011;26812;42.662;23.352;2022-09-09T16:33:31;11.15;;;8.30;;
41061;SDS011;26812;42.662;23.352;2022-09-09T16:35:57;13.55;;;9.02;;
41061;SDS011;26812;42.662;23.352;2022-09-09T16:38:22;12.90;;;8.35;;
41061;SDS011;26812;42.662;23.352;2022-09-09T16:40:49;8.45;;;7.65;;
41061;SDS011;26812;42.662;23.352;2022-09-09T16:43:15;14.35;;;10.23;;
41061;SDS011;26812;42.662;23.352;2022-09-09T16:45:41;11.18;;;9.40;;
41061;SDS011;26812;42.662;23.352;2022-09-09T16:48:08;10.45;;;8.60;;
41061;SDS011;26812;42.662;23.352;2022-09-09T16:50:33;13.25;;;9.60;;
41061;SDS011;26812;42.662;23.352;2022-09-09T16:52:59;11.30;;;9.73;;
41061;SDS011;26812;42.662;23.352;2022-09-09T16:55:24;15.85;;;10.48;;
41061;SDS011;26812;42.662;23.352;2022-09-09T16:57:51;18.98;;;12.52;;
41061;SDS011;26812;42.662;23.352;2022-09-09T17:00:16;17.55;;;9.32;;
41061;SDS011;26812;42.662;23.352;2022-09-09T17:02:42;15.88;;;9.02;;
41061;SDS011;26812;42.662;23.352;2022-09-09T17:05:08;9.30;;;8.02;;